This is the latest recevied weather packets stored in our database for station/object TG9SRP-22. If no packets are shown the sender has not sent any weather packets the latest 1 day(s).
| Time | Temp. | Humidity | Pressure | Rain* | Wind** | Luminosity | Snow |
|---|---|---|---|---|---|---|---|
| 1778029700 | 18.89° C | 94% | 1014 hPa | 0 mm | 4.92 m/s, 190° | - | - |
| 1778029099 | 16.11° C | 95% | 1014 hPa | 0 mm | 2.24 m/s, 207° | - | - |
| 1778028498 | 16.11° C | 90% | 1014 hPa | 0 mm | 5.81 m/s, 190° | - | - |
| 1778027898 | 17.22° C | 89% | 1013 hPa | 0 mm | 5.81 m/s, 190° | - | - |
| 1778027297 | 18.33° C | 87% | 1013 hPa | 0 mm | 5.81 m/s, 190° | - | - |
| 1778026697 | 19.44° C | 87% | 1013 hPa | 0 mm | 5.81 m/s, 190° | - | - |
| 1778026096 | 17.78° C | 93% | 1013 hPa | 0 mm | 2.24 m/s, 205° | - | - |
| 1778025495 | 18.89° C | 92% | 1013 hPa | 0 mm | 2.24 m/s, 205° | - | - |
| 1778024895 | 19.44° C | 89% | 1012 hPa | 0 mm | 2.24 m/s, 205° | - | - |
| 1778024294 | 19.44° C | 89% | 1012 hPa | 0 mm | 2.24 m/s, 205° | - | - |
| 1778023694 | 19.44° C | 81% | 1012 hPa | 0 mm | 4.92 m/s, 210° | - | - |
| 1778023093 | 20.56° C | 78% | 1012 hPa | 0 mm | 4.92 m/s, 210° | - | - |
| 1778022493 | 21.67° C | 77% | 1012 hPa | 0 mm | 4.92 m/s, 210° | - | - |
| 1778021892 | 19.44° C | 80% | 1012 hPa | 0 mm | 5.81 m/s, 200° | - | - |
| 1778021291 | 20° C | 78% | 1012 hPa | 0 mm | 5.81 m/s, 200° | - | - |
| 1778020691 | 21.11° C | 74% | 1012 hPa | 0 mm | 5.81 m/s, 200° | - | - |
| 1778020090 | 21.67° C | 73% | 1011 hPa | 0 mm | 5.81 m/s, 200° | - | - |
| 1778019489 | 22.22° C | 75% | 1011 hPa | 0 mm | 5.81 m/s, 200° | - | - |
| 1778018889 | 22.78° C | 80% | 1011 hPa | 0 mm | 5.81 m/s, 200° | - | - |
| 1778018288 | 21.11° C | 10% | - | 0.25 mm | 3.13 m/s, 184° | - | - |
| 1778017688 | 21.11° C | 10% | - | 0.25 mm | 3.13 m/s, 184° | - | - |
| 1778017087 | 21.11° C | 10% | - | 0 mm | 1.79 m/s, 165° | - | - |
| 1778016486 | 21.11° C | 10% | - | 0 mm | 1.79 m/s, 165° | - | - |
| 1778015886 | 21.11° C | 85% | 1011 hPa | 0 mm | 1.79 m/s, 165° | - | - |
| 1778015285 | 22.22° C | 73% | 1011 hPa | 0 mm | 5.81 m/s, 180° | - | - |
* Rain latest hour (hover to see other rain measurements)
** Current wind speed in m/s (hover to see current wind gust speed)